createdAt,value
2019-04-01T00:00:34.104Z,3.1
2019-04-01T00:01:24.060Z,3.1
2019-04-01T00:02:14.071Z,3.1
2019-04-01T00:03:04.049Z,3.1
2019-04-01T00:03:54.107Z,3.1
2019-04-01T00:04:44.017Z,3.1
2019-04-01T00:05:34.080Z,3
2019-04-01T00:06:24.071Z,3
2019-04-01T00:07:14.021Z,3
2019-04-01T00:08:04.082Z,3
2019-04-01T00:08:54.096Z,3
2019-04-01T00:09:44.003Z,3
2019-04-01T00:10:34.025Z,3
2019-04-01T00:11:24.108Z,3
2019-04-01T00:12:14.230Z,2.9
2019-04-01T00:13:04.090Z,2.9
2019-04-01T00:13:54.164Z,2.9
2019-04-01T00:14:44.013Z,2.9
2019-04-01T00:15:33.997Z,2.9
2019-04-01T00:16:24.089Z,2.9
2019-04-01T00:17:14.060Z,2.9
2019-04-01T00:18:04.104Z,2.8
2019-04-01T00:19:02.695Z,2.8
2019-04-01T00:19:44.656Z,2.8
2019-04-01T00:20:34.017Z,2.8
2019-04-01T00:21:24.111Z,2.8
2019-04-01T00:22:14.105Z,2.8
2019-04-01T00:23:04.275Z,2.7
2019-04-01T00:23:54.163Z,2.7
2019-04-01T00:24:44.133Z,2.7
2019-04-01T00:25:34.180Z,2.7
2019-04-01T00:26:24.118Z,2.7
2019-04-01T00:27:14.112Z,2.7
2019-04-01T00:28:04.088Z,2.7
2019-04-01T00:28:54.152Z,2.6
2019-04-01T00:29:44.645Z,2.6
2019-04-01T00:30:34.082Z,2.6
2019-04-01T00:31:24.058Z,2.6
2019-04-01T00:32:14.057Z,2.6
2019-04-01T00:33:05.262Z,2.6
2019-04-01T00:33:54.327Z,2.6
2019-04-01T00:34:44.365Z,2.6
2019-04-01T00:35:34.323Z,2.6
2019-04-01T00:36:24.478Z,2.6
2019-04-01T00:37:14.415Z,2.5
2019-04-01T00:38:04.304Z,2.5
2019-04-01T00:38:54.338Z,2.5
2019-04-01T00:39:44.939Z,2.5
2019-04-01T00:40:34.338Z,2.5
2019-04-01T00:41:24.392Z,2.5
2019-04-01T00:42:14.376Z,2.5
2019-04-01T00:43:06.274Z,2.5
2019-04-01T00:43:54.340Z,2.5
2019-04-01T00:44:45.776Z,2.4
2019-04-01T00:45:34.369Z,2.4
2019-04-01T00:46:24.395Z,2.4
2019-04-01T00:47:14.376Z,2.4
2019-04-01T00:48:04.334Z,2.4
2019-04-01T00:48:54.365Z,2.4
2019-04-01T00:49:46.734Z,2.4
2019-04-01T00:50:34.361Z,2.3
2019-04-01T00:51:24.350Z,2.3
2019-04-01T00:53:27.577Z,2.3
2019-04-01T00:54:17.585Z,2.2
2019-04-01T00:55:07.602Z,2.2
2019-04-01T00:55:57.568Z,2.2
2019-04-01T00:56:47.659Z,2.2
2019-04-01T00:57:37.621Z,2.2
2019-04-01T00:58:30.340Z,2.2
2019-04-01T00:59:17.565Z,2.2
2019-04-01T01:00:07.812Z,2.2
2019-04-01T01:00:57.646Z,2.2
2019-04-01T01:01:48.882Z,2.2
2019-04-01T01:02:37.637Z,2.2
2019-04-01T01:03:27.662Z,2.1
2019-04-01T01:04:17.603Z,2.1
2019-04-01T01:05:07.636Z,2.1
2019-04-01T01:05:57.672Z,2.1
2019-04-01T01:06:49.611Z,2.1
2019-04-01T01:07:37.586Z,2.1
2019-04-01T01:08:27.598Z,2.1
2019-04-01T01:09:17.602Z,2.1
2019-04-01T01:10:07.604Z,2
2019-04-01T01:10:57.620Z,2
2019-04-01T01:11:50.464Z,2
2019-04-01T01:12:37.642Z,2
2019-04-01T01:13:27.772Z,2
2019-04-01T01:14:17.610Z,2
2019-04-01T01:15:07.900Z,2
2019-04-01T01:15:57.843Z,1.9
2019-04-01T01:16:49.653Z,2
2019-04-01T01:17:37.901Z,1.9
2019-04-01T01:18:27.899Z,1.9
2019-04-01T01:19:17.886Z,1.9
2019-04-01T01:20:07.809Z,1.9
2019-04-01T01:20:57.886Z,1.9
2019-04-01T01:21:48.007Z,1.9
2019-04-01T01:22:37.890Z,1.9
2019-04-01T01:23:27.895Z,1.9
2019-04-01T01:24:17.874Z,1.9
2019-04-01T01:25:07.917Z,1.8
2019-04-01T01:25:57.882Z,1.8
2019-04-01T01:26:47.890Z,1.8
2019-04-01T01:27:37.867Z,1.8
2019-04-01T01:28:27.830Z,1.8
2019-04-01T01:29:17.871Z,1.8
2019-04-01T01:30:07.872Z,1.8
2019-04-01T01:30:57.883Z,1.8
2019-04-01T01:31:47.948Z,1.8
2019-04-01T01:32:37.821Z,1.8
2019-04-01T01:33:27.923Z,1.8
2019-04-01T01:34:18.101Z,1.8
2019-04-01T01:35:08.126Z,1.8
2019-04-01T01:35:58.101Z,1.8
2019-04-01T01:36:48.145Z,1.8
2019-04-01T01:37:38.129Z,1.7
2019-04-01T01:38:28.148Z,1.7
2019-04-01T01:39:18.171Z,1.7
2019-04-01T01:40:09.132Z,1.7
2019-04-01T01:40:58.951Z,1.7
2019-04-01T01:41:48.961Z,1.6
2019-04-01T01:42:38.945Z,1.6
2019-04-01T01:43:28.979Z,1.6
2019-04-01T01:44:18.920Z,1.6
2019-04-01T01:45:08.943Z,1.6
2019-04-01T01:45:59.447Z,1.6
2019-04-01T01:46:48.916Z,1.5
2019-04-01T01:47:38.883Z,1.5
2019-04-01T01:48:28.937Z,1.5
2019-04-01T01:49:18.913Z,1.5
2019-04-01T01:50:08.890Z,1.5
2019-04-01T01:50:58.922Z,1.5
2019-04-01T01:51:48.946Z,1.5
2019-04-01T01:52:38.944Z,1.5
2019-04-01T01:53:29.322Z,1.5
2019-04-01T01:54:18.916Z,1.5
2019-04-01T01:55:08.883Z,1.4
2019-04-01T01:55:59.481Z,1.4
2019-04-01T01:56:49.434Z,1.4
2019-04-01T01:57:38.916Z,1.4
2019-04-01T01:58:28.930Z,1.4
2019-04-01T01:59:18.934Z,1.4
2019-04-01T02:00:08.967Z,1.4
2019-04-01T02:00:58.910Z,1.4
2019-04-01T02:01:48.959Z,1.4
2019-04-01T02:02:38.878Z,1.3
2019-04-01T02:03:28.948Z,1.3
2019-04-01T02:04:19.050Z,1.3
2019-04-01T02:05:08.925Z,1.3
2019-04-01T02:06:00.831Z,1.3
2019-04-01T02:06:48.974Z,1.3
2019-04-01T02:07:39.012Z,1.3
2019-04-01T02:08:28.911Z,1.3
2019-04-01T02:09:18.919Z,1.2
2019-04-01T02:10:08.934Z,1.2
2019-04-01T02:10:59.306Z,1.2
2019-04-01T02:11:48.913Z,1.2
2019-04-01T02:12:38.922Z,1.2
2019-04-01T02:13:28.980Z,1.2
2019-04-01T02:14:18.949Z,1.1
2019-04-01T02:15:09.597Z,1.2
2019-04-01T02:16:01.968Z,1.2
2019-04-01T02:16:49.583Z,1.2
2019-04-01T02:17:39.547Z,1.1
2019-04-01T02:18:29.586Z,1.1
2019-04-01T02:19:19.535Z,1.1
2019-04-01T02:20:09.543Z,1.1
2019-04-01T02:21:01.063Z,1.1
2019-04-01T02:21:49.534Z,1.1
2019-04-01T02:22:39.553Z,1.1
2019-04-01T02:23:31.996Z,1.1
2019-04-01T02:24:20.390Z,1.1
2019-04-01T02:25:10.325Z,1
2019-04-01T02:26:01.747Z,1
2019-04-01T02:26:50.445Z,1
2019-04-01T02:27:40.407Z,1
2019-04-01T02:28:30.336Z,1
2019-04-01T02:29:20.427Z,1
2019-04-01T02:30:10.359Z,1
2019-04-01T02:31:01.570Z,0.9
2019-04-01T02:31:50.401Z,1
2019-04-01T02:32:40.334Z,0.9
2019-04-01T02:33:30.342Z,0.9
2019-04-01T02:34:20.331Z,0.9
2019-04-01T02:35:10.414Z,0.9
2019-04-01T02:36:03.539Z,0.9
2019-04-01T02:36:50.319Z,0.9
2019-04-01T02:37:40.350Z,0.9
2019-04-01T02:38:30.681Z,0.9
2019-04-01T02:39:20.328Z,0.9
2019-04-01T02:40:10.309Z,0.9
2019-04-01T02:41:00.590Z,0.9
2019-04-01T02:41:50.363Z,0.9
2019-04-01T02:42:40.471Z,0.8
2019-04-01T02:43:30.364Z,0.8
2019-04-01T02:44:20.341Z,0.8
2019-04-01T02:45:10.343Z,0.8
2019-04-01T02:46:00.504Z,0.8
2019-04-01T02:46:51.118Z,0.8
2019-04-01T02:47:41.085Z,0.8
2019-04-01T02:48:31.095Z,0.8
2019-04-01T02:49:21.079Z,0.7
2019-04-01T02:50:11.113Z,0.8
2019-04-01T02:51:01.158Z,0.7
2019-04-01T02:51:51.134Z,0.7
2019-04-01T02:52:41.127Z,0.7
2019-04-01T02:53:31.619Z,0.7
2019-04-01T02:54:21.134Z,0.7
2019-04-01T02:55:11.130Z,0.7
2019-04-01T02:56:01.196Z,0.7
2019-04-01T02:56:51.088Z,0.7
2019-04-01T02:57:41.110Z,0.7
2019-04-01T02:58:31.114Z,0.7
2019-04-01T02:59:21.087Z,0.6
2019-04-01T03:00:11.096Z,0.6
2019-04-01T03:01:01.071Z,0.6
2019-04-01T03:01:51.116Z,0.6
2019-04-01T03:02:41.815Z,0.5
2019-04-01T03:03:31.777Z,0.6
2019-04-01T03:04:21.145Z,0.6
2019-04-01T03:05:11.168Z,0.6
2019-04-01T03:06:01.084Z,0.6
2019-04-01T03:06:51.118Z,0.6
2019-04-01T03:07:41.178Z,0.6
2019-04-01T03:08:31.096Z,0.6
2019-04-01T03:09:21.147Z,0.6
2019-04-01T03:10:11.206Z,0.6
2019-04-01T03:11:01.082Z,0.5
2019-04-01T03:11:51.130Z,0.5
2019-04-01T03:12:41.089Z,0.5
2019-04-01T03:13:31.934Z,0.5
2019-04-01T03:14:21.067Z,0.5
2019-04-01T03:15:11.109Z,0.4
2019-04-01T03:16:01.096Z,0.5
2019-04-01T03:16:51.102Z,0.5
2019-04-01T03:17:41.106Z,0.5
2019-04-01T03:18:31.124Z,0.5
2019-04-01T03:19:21.244Z,0.5
2019-04-01T03:20:13.172Z,0.4
2019-04-01T03:21:01.133Z,0.4
2019-04-01T03:21:51.194Z,0.4
2019-04-01T03:22:41.099Z,0.4
2019-04-01T03:23:32.054Z,0.4
2019-04-01T03:24:21.157Z,0.4
2019-04-01T03:25:11.149Z,0.4
2019-04-01T03:26:01.107Z,0.4
2019-04-01T03:26:51.311Z,0.4
2019-04-01T03:27:41.149Z,0.4
2019-04-01T03:28:31.087Z,0.4
2019-04-01T03:29:21.134Z,0.3
2019-04-01T03:30:11.127Z,0.3
2019-04-01T03:31:01.141Z,0.3
2019-04-01T03:31:51.071Z,0.3
2019-04-01T03:32:44.874Z,0.3
2019-04-01T03:33:32.037Z,0.3
2019-04-01T03:34:21.153Z,0.3
2019-04-01T03:35:12.679Z,0.3
2019-04-01T03:36:01.124Z,0.3
2019-04-01T03:36:51.140Z,0.3
2019-04-01T03:37:41.154Z,0.3
2019-04-01T03:38:31.101Z,0.3
2019-04-01T03:39:21.187Z,0.3
2019-04-01T03:40:12.058Z,0.3
2019-04-01T03:41:01.116Z,0.3
2019-04-01T03:41:51.246Z,0.3
2019-04-01T03:42:41.115Z,0.2
2019-04-01T03:43:32.114Z,0.2
2019-04-01T03:44:21.400Z,0.2
2019-04-01T03:45:11.733Z,0.2
2019-04-01T03:46:01.421Z,0.2
2019-04-01T03:46:51.573Z,0.2
2019-04-01T03:47:41.343Z,0.2
2019-04-01T03:48:31.371Z,0.2
2019-04-01T03:49:21.367Z,0.2
2019-04-01T03:50:11.448Z,0.2
2019-04-01T03:51:01.375Z,0.2
2019-04-01T03:51:51.414Z,0.2
2019-04-01T03:52:41.368Z,0.1
2019-04-01T03:53:32.579Z,0.1
2019-04-01T03:54:21.366Z,0.1
2019-04-01T03:55:11.432Z,0.1
2019-04-01T03:56:01.396Z,0.1
2019-04-01T03:56:51.454Z,0.1
2019-04-01T03:57:41.346Z,0.1
2019-04-01T03:58:31.366Z,0.1
2019-04-01T03:59:21.418Z,0.1
2019-04-01T04:00:11.435Z,0.1
2019-04-01T04:01:01.570Z,0.1
2019-04-01T04:01:51.422Z,0.1
2019-04-01T04:02:41.413Z,0.1
2019-04-01T04:03:32.714Z,0.1
2019-04-01T04:04:21.366Z,0.1
2019-04-01T04:05:11.479Z,0.1
2019-04-01T04:06:01.351Z,0
2019-04-01T04:06:51.420Z,0
2019-04-01T04:07:41.375Z,0
2019-04-01T04:08:31.400Z,0
2019-04-01T04:09:21.392Z,0
2019-04-01T04:10:11.422Z,0
2019-04-01T04:11:01.396Z,0
2019-04-01T04:11:51.479Z,0
2019-04-01T04:12:41.408Z,-0.1
2019-04-01T04:13:31.744Z,-0.1
2019-04-01T04:14:21.349Z,-0.1
2019-04-01T04:15:11.368Z,-0.1
2019-04-01T04:16:01.383Z,-0.1
2019-04-01T04:16:51.353Z,-0.1
2019-04-01T04:17:41.529Z,-0.1
2019-04-01T04:18:31.473Z,-0.1
2019-04-01T04:30:52.216Z,-0.2
2019-04-01T04:32:58.271Z,-0.2
2019-04-01T04:33:48.970Z,-0.2
2019-04-01T04:34:38.956Z,-0.2
2019-04-01T04:36:33.664Z,-0.2
2019-04-01T04:38:25.315Z,-0.3
2019-04-01T04:39:14.936Z,-0.3
2019-04-01T04:40:05.359Z,-0.3
2019-04-01T04:41:09.430Z,-0.3
2019-04-01T04:42:19.521Z,-0.3
2019-04-01T04:43:09.514Z,-0.3
2019-04-01T04:43:59.716Z,-0.3
2019-04-01T04:44:49.765Z,-0.3
2019-04-01T04:45:41.088Z,-0.3
2019-04-01T04:46:31.086Z,-0.3
2019-04-01T04:47:23.727Z,-0.3
2019-04-01T04:48:11.048Z,-0.3
2019-04-01T04:49:01.860Z,-0.3
2019-04-01T04:49:52.832Z,-0.4
2019-04-01T04:50:42.790Z,-0.4
2019-04-01T04:51:32.706Z,-0.4
2019-04-01T04:52:24.573Z,-0.4
2019-04-01T04:53:12.765Z,-0.4
2019-04-01T04:54:02.757Z,-0.4
2019-04-01T04:54:52.708Z,-0.4
2019-04-01T04:55:43.933Z,-0.4
2019-04-01T04:56:34.030Z,-0.4
2019-04-01T04:57:25.227Z,-0.4
2019-04-01T04:58:13.891Z,-0.4
2019-04-01T04:59:04.039Z,-0.4
2019-04-01T04:59:53.881Z,-0.4
2019-04-01T05:00:43.918Z,-0.4
2019-04-01T05:01:33.905Z,-0.4
2019-04-01T05:02:26.358Z,-0.4
2019-04-01T05:03:13.909Z,-0.5
2019-04-01T05:04:03.917Z,-0.5
2019-04-01T05:04:54.022Z,-0.5
2019-04-01T05:05:44.963Z,-0.5
2019-04-01T05:06:34.922Z,-0.5
2019-04-01T05:07:25.620Z,-0.5
2019-04-01T05:08:14.922Z,-0.5
2019-04-01T05:09:04.973Z,-0.5
2019-04-01T05:09:54.931Z,-0.5
2019-04-01T05:10:44.946Z,-0.5
2019-04-01T05:11:34.998Z,-0.5
2019-04-01T05:12:25.111Z,-0.5
2019-04-01T05:16:54.379Z,-0.6
2019-04-01T05:17:44.358Z,-0.6
2019-04-01T05:18:34.291Z,-0.6
2019-04-01T05:19:24.279Z,-0.6
2019-04-01T05:20:16.468Z,-0.6
2019-04-01T05:21:04.375Z,-0.6
2019-04-01T05:21:54.376Z,-0.6
2019-04-01T05:22:44.377Z,-0.6
2019-04-01T05:23:34.446Z,-0.6
2019-04-01T05:24:24.281Z,-0.6
2019-04-01T05:25:14.453Z,-0.6
2019-04-01T05:26:04.361Z,-0.6
2019-04-01T05:26:54.384Z,-0.6
2019-04-01T05:27:44.356Z,-0.6
2019-04-01T05:28:34.326Z,-0.6
2019-04-01T05:29:24.378Z,-0.6
2019-04-01T05:30:14.466Z,-0.6
2019-04-01T05:31:04.392Z,-0.6
2019-04-01T05:31:54.885Z,-0.6
2019-04-01T05:32:54.087Z,-0.6
2019-04-01T05:33:55.053Z,-0.6
2019-04-01T05:34:35.431Z,-0.6
2019-04-01T05:35:25.605Z,-0.6
2019-04-01T05:36:15.535Z,-0.7
2019-04-01T05:37:08.735Z,-0.7
2019-04-01T05:37:56.154Z,-0.7
2019-04-01T05:38:46.409Z,-0.7
2019-04-01T05:39:53.822Z,-0.7
2019-04-01T05:40:42.270Z,-0.7
2019-04-01T05:42:38.993Z,-0.7
2019-04-01T05:43:29.054Z,-0.7
2019-04-01T05:44:19.046Z,-0.7
2019-04-01T05:45:09.025Z,-0.7
2019-04-01T05:45:59.089Z,-0.7
2019-04-01T05:46:49.017Z,-0.7
2019-04-01T05:47:39.021Z,-0.7
2019-04-01T05:48:29.182Z,-0.7
2019-04-01T05:49:19.131Z,-0.7
2019-04-01T05:50:08.965Z,-0.7
2019-04-01T05:50:59.019Z,-0.7
2019-04-01T05:51:48.987Z,-0.7
2019-04-01T05:52:39.076Z,-0.7
2019-04-01T05:53:29.050Z,-0.6
2019-04-01T05:54:19.010Z,-0.7
2019-04-01T05:55:09.297Z,-0.7
2019-04-01T05:55:59.049Z,-0.6
2019-04-01T05:56:49.048Z,-0.7
2019-04-01T05:57:39.059Z,-0.6
2019-04-01T05:58:29.044Z,-0.6
2019-04-01T05:59:19.057Z,-0.6
2019-04-01T06:00:09.041Z,-0.6
2019-04-01T06:00:59.060Z,-0.6
2019-04-01T06:01:48.990Z,-0.7
2019-04-01T06:02:39.016Z,-0.6
2019-04-01T06:03:29.001Z,-0.6
2019-04-01T06:04:19.068Z,-0.6
2019-04-01T06:05:09.028Z,-0.6
2019-04-01T06:05:59.626Z,-0.6
2019-04-01T06:06:49.719Z,-0.6
2019-04-01T06:07:39.586Z,-0.6
2019-04-01T06:08:29.635Z,-0.6
2019-04-01T06:09:19.525Z,-0.6
2019-04-01T06:10:09.539Z,-0.6
2019-04-01T06:10:59.607Z,-0.6
2019-04-01T06:11:50.111Z,-0.6
2019-04-01T06:12:40.500Z,-0.6
2019-04-01T06:13:30.605Z,-0.6
2019-04-01T06:14:21.024Z,-0.6
2019-04-01T06:15:11.918Z,-0.6
2019-04-01T06:16:01.873Z,-0.6
2019-04-01T06:16:51.863Z,-0.6
2019-04-01T06:17:41.869Z,-0.6
2019-04-01T06:18:31.903Z,-0.5
2019-04-01T06:19:22.134Z,-0.5
2019-04-01T06:20:12.504Z,-0.5
2019-04-01T06:21:02.306Z,-0.5
2019-04-01T06:21:52.376Z,-0.5
2019-04-01T06:22:42.312Z,-0.4
2019-04-01T06:23:33.582Z,-0.4
2019-04-01T06:24:24.775Z,-0.4
2019-04-01T06:25:13.794Z,-0.4
2019-04-01T06:26:03.776Z,-0.4
2019-04-01T06:26:53.857Z,-0.4
2019-04-01T06:27:43.736Z,-0.4
2019-04-01T06:28:33.779Z,-0.4
2019-04-01T06:29:23.845Z,-0.4
2019-04-01T06:30:13.801Z,-0.3
2019-04-01T06:31:03.787Z,-0.3
2019-04-01T06:31:53.909Z,-0.3
2019-04-01T06:32:43.760Z,-0.3
2019-04-01T06:33:33.880Z,-0.3
2019-04-01T06:34:24.258Z,-0.2
2019-04-01T06:35:14.952Z,-0.2
2019-04-01T06:36:16.072Z,-0.2
2019-04-01T06:37:06.077Z,-0.1
2019-04-01T06:37:56.356Z,-0.1
2019-04-01T06:38:46.342Z,-0.1
2019-04-01T06:39:36.301Z,0
2019-04-01T06:43:21.158Z,0
2019-04-01T06:44:11.194Z,0.1
2019-04-01T06:45:01.281Z,0.1
2019-04-01T06:45:51.192Z,0.2
2019-04-01T06:46:41.537Z,0.2
2019-04-01T06:47:31.207Z,0.2
2019-04-01T06:48:21.195Z,0.3
2019-04-01T06:49:11.206Z,0.3
2019-04-01T06:50:01.196Z,0.3
2019-04-01T06:50:51.237Z,0.4
2019-04-01T06:51:41.319Z,0.4
2019-04-01T06:52:31.218Z,0.5
2019-04-01T06:59:56.100Z,0.8
2019-04-01T07:00:46.503Z,0.9
2019-04-01T07:01:36.472Z,1
2019-04-01T07:02:27.407Z,1
2019-04-01T07:03:18.698Z,1.1
2019-04-01T07:04:08.641Z,1.1
2019-04-01T07:04:59.477Z,1.2
2019-04-01T07:22:26.018Z,2.1
2019-04-01T07:23:15.890Z,2.1
2019-04-01T07:24:05.846Z,2.2
2019-04-01T07:24:55.837Z,2.2
2019-04-01T07:25:47.601Z,2.3
2019-04-01T07:26:35.881Z,2.3
2019-04-01T07:27:25.910Z,2.3
2019-04-01T07:28:15.819Z,2.4
2019-04-01T07:29:05.862Z,2.4
2019-04-01T07:29:55.869Z,2.4
2019-04-01T07:30:48.849Z,2.4
2019-04-01T07:31:35.835Z,2.5
2019-04-01T07:33:42.278Z,2.6
2019-04-01T07:34:32.280Z,2.6
2019-04-01T07:35:22.970Z,2.7
2019-04-01T07:36:13.632Z,2.7
2019-04-01T07:37:03.923Z,2.7
2019-04-01T07:37:53.594Z,2.8
2019-04-01T07:38:44.586Z,2.8
2019-04-01T07:39:34.456Z,2.8
2019-04-01T07:40:25.221Z,2.9
2019-04-01T07:41:16.228Z,2.9
2019-04-01T07:42:18.622Z,2.9
2019-04-01T07:43:18.496Z,3
2019-04-01T07:44:08.509Z,3
2019-04-01T07:44:58.519Z,3
2019-04-01T07:45:49.430Z,3.1
2019-04-01T07:46:38.472Z,3.2
2019-04-01T07:47:28.839Z,3.2
2019-04-01T07:51:01.141Z,3.4
2019-04-01T07:51:51.747Z,3.5
2019-04-01T07:52:41.121Z,3.5
2019-04-01T07:53:31.129Z,3.6
2019-04-01T07:54:21.112Z,3.7
2019-04-01T07:55:11.165Z,3.7
2019-04-01T07:56:02.635Z,3.8
2019-04-01T07:56:52.659Z,3.8
2019-04-01T08:03:03.291Z,4.3
2019-04-01T08:03:58.897Z,4.4
2019-04-01T08:04:48.896Z,4.6
2019-04-01T08:05:38.935Z,4.7
2019-04-01T08:06:28.954Z,4.9
2019-04-01T08:07:18.942Z,5.2
2019-04-01T08:08:09.035Z,5.3
2019-04-01T08:08:58.902Z,5.5
2019-04-01T08:09:49.078Z,5.7
2019-04-01T08:10:38.934Z,6
2019-04-01T08:18:18.746Z,7.3
2019-04-01T08:19:08.840Z,7.5
2019-04-01T08:22:03.440Z,8.1
2019-04-01T08:25:09.011Z,8.1
2019-04-01T08:25:59.228Z,8.2
2019-04-01T08:28:01.066Z,8.6
2019-04-01T08:28:49.330Z,8.8
2019-04-01T08:29:39.394Z,8.9
2019-04-01T08:31:48.201Z,9.4
2019-04-01T08:32:39.519Z,9.5
2019-04-01T08:33:30.034Z,9.4
2019-04-01T08:34:20.200Z,9.4
2019-04-01T08:35:10.748Z,9.5
2019-04-01T08:36:01.161Z,9.5
2019-04-01T08:36:51.583Z,9.4
2019-04-01T08:37:42.773Z,9.4
2019-04-01T08:38:33.121Z,9.4
2019-04-01T08:39:22.680Z,9.4
2019-04-01T08:40:12.859Z,9.5
2019-04-01T08:46:07.187Z,8.9
2019-04-01T08:47:00.229Z,8.9
2019-04-01T08:47:47.149Z,9
2019-04-01T08:48:37.129Z,9.1
2019-04-01T08:49:27.550Z,9.3
2019-04-01T08:50:17.515Z,9.5
2019-04-01T09:06:31.175Z,9.2
2019-04-01T09:07:18.046Z,9.2
2019-04-01T09:08:08.182Z,9.2
2019-04-01T09:08:58.002Z,9.3
2019-04-01T09:09:48.067Z,9.3
2019-04-01T09:10:38.595Z,9.2
2019-04-01T09:11:27.990Z,9.2
2019-04-01T09:12:18.008Z,9.3
2019-04-01T09:13:08.094Z,9.3
2019-04-01T09:13:58.135Z,9.2
2019-04-01T09:14:48.197Z,9.2
2019-04-01T09:15:38.210Z,9.2
2019-04-01T09:16:27.969Z,9.3
2019-04-01T09:17:18.021Z,9.3
2019-04-01T09:18:08.664Z,9.3
2019-04-01T09:18:58.008Z,9.3
2019-04-01T09:19:48.042Z,9.3
2019-04-01T09:20:38.018Z,9.3
2019-04-01T09:21:28.002Z,9.3
2019-04-01T09:22:18.049Z,9.3
2019-04-01T09:23:08.085Z,9.4
2019-04-01T09:23:58.049Z,9.4
2019-04-01T09:24:48.030Z,9.4
2019-04-01T09:25:38.117Z,9.5
2019-04-01T09:26:28.155Z,9.5
2019-04-01T09:27:18.062Z,9.5
2019-04-01T09:28:08.602Z,9.6
2019-04-01T09:28:58.322Z,9.6
2019-04-01T09:29:48.328Z,9.6
2019-04-01T09:30:38.281Z,9.6
2019-04-01T09:31:28.310Z,9.7
2019-04-01T09:32:18.271Z,9.7
2019-04-01T09:33:09.328Z,9.7
2019-04-01T09:33:58.299Z,9.7
2019-04-01T09:34:48.268Z,9.8
2019-04-01T09:35:40.811Z,9.8
2019-04-01T09:36:28.619Z,9.8
2019-04-01T09:37:18.598Z,9.9
2019-04-01T09:38:08.928Z,9.9
2019-04-01T09:38:58.635Z,9.9
2019-04-01T09:39:49.011Z,10
2019-04-01T09:40:39.138Z,10
2019-04-01T09:41:29.331Z,10.1
2019-04-01T09:42:27.171Z,10.2
2019-04-01T09:43:17.254Z,10.2
2019-04-01T09:44:09.100Z,10.3
2019-04-01T09:44:57.813Z,10.3
2019-04-01T09:45:48.118Z,10.4
2019-04-01T10:03:00.764Z,11.1
2019-04-01T10:03:57.761Z,11.2
2019-04-01T10:04:47.819Z,11.2
2019-04-01T10:05:38.079Z,11.3
2019-04-01T10:06:28.124Z,11.3
2019-04-01T10:07:18.030Z,11.4
2019-04-01T10:08:13.194Z,11.4
2019-04-01T10:09:02.889Z,11.4
2019-04-01T10:09:52.816Z,11.4
2019-04-01T10:10:42.865Z,11.5
2019-04-01T10:22:00.616Z,12
2019-04-01T10:22:50.881Z,12
2019-04-01T10:23:40.987Z,12.1
2019-04-01T10:24:30.981Z,12.1
2019-04-01T10:25:21.796Z,12.1
2019-04-01T10:26:12.050Z,12.2
2019-04-01T10:27:02.863Z,12.2
2019-04-01T10:27:53.216Z,12.3
2019-04-01T10:28:43.233Z,12.4
2019-04-01T10:29:33.889Z,12.4
2019-04-01T10:30:24.475Z,12.4
2019-04-01T10:31:16.706Z,12.4
2019-04-01T10:32:06.018Z,12.5
2019-04-01T10:32:57.905Z,12.5
2019-04-01T10:33:51.594Z,12.6
2019-04-01T10:34:41.755Z,12.6
2019-04-01T10:53:59.850Z,13.8
2019-04-01T10:54:50.120Z,13.8
2019-04-01T10:55:40.371Z,13.8
2019-04-01T10:56:31.301Z,13.9
2019-04-01T11:42:40.694Z,15.9
2019-04-01T11:43:29.301Z,15.9
2019-04-01T11:44:19.203Z,15.9
2019-04-01T11:45:09.172Z,15.9
2019-04-01T11:45:59.342Z,16
2019-04-01T11:46:49.188Z,16
2019-04-01T11:47:39.346Z,16
2019-04-01T11:48:29.460Z,16.1
2019-04-01T11:49:19.244Z,16.1
2019-04-01T11:50:09.151Z,16
2019-04-01T11:50:59.190Z,16.1
2019-04-01T11:51:49.273Z,16.1
2019-04-01T11:52:39.286Z,16.2
2019-04-01T11:53:29.224Z,16.2
2019-04-01T11:54:19.157Z,16.3
2019-04-01T11:55:09.679Z,16.3
2019-04-01T11:55:59.149Z,16.4
2019-04-01T11:56:49.169Z,16.4
2019-04-01T11:57:40.459Z,16.4
2019-04-01T11:58:30.089Z,16.4
2019-04-01T11:59:19.117Z,16.4
2019-04-01T12:00:12.366Z,16.3
2019-04-01T12:00:59.185Z,16.3
2019-04-01T12:01:49.169Z,16.2
2019-04-01T12:02:39.226Z,16.3
2019-04-01T12:03:31.357Z,16.3
2019-04-01T12:04:19.154Z,16.3
2019-04-01T12:05:09.497Z,16.4
2019-04-01T12:05:59.160Z,16.5
2019-04-01T12:06:49.184Z,16.5
2019-04-01T12:07:39.193Z,16.5
2019-04-01T12:08:30.619Z,16.5
2019-04-01T12:09:19.198Z,16.6
2019-04-01T12:10:09.219Z,16.7
2019-04-01T12:10:59.193Z,16.7
2019-04-01T12:11:49.191Z,16.8
2019-04-01T12:12:39.220Z,16.8
2019-04-01T12:13:29.267Z,16.8
2019-04-01T12:14:19.221Z,16.9
2019-04-01T12:15:11.886Z,16.8
2019-04-01T12:15:59.251Z,16.9
2019-04-01T12:16:49.164Z,16.9
2019-04-01T12:17:41.503Z,16.9
2019-04-01T12:18:29.252Z,16.9
2019-04-01T12:19:19.211Z,17
2019-04-01T12:20:09.574Z,17
2019-04-01T12:20:59.205Z,17
2019-04-01T12:21:49.214Z,16.9
2019-04-01T12:22:40.539Z,16.9
2019-04-01T12:23:29.193Z,16.9
2019-04-01T12:24:19.161Z,16.8
2019-04-01T12:25:09.627Z,16.9
2019-04-01T12:26:13.846Z,16.9
2019-04-01T12:26:49.221Z,17
2019-04-01T12:27:39.176Z,17
2019-04-01T12:28:29.175Z,17.1
2019-04-01T12:29:19.107Z,17.1
2019-04-01T12:30:09.180Z,17.2
2019-04-01T12:30:59.164Z,17.2
2019-04-01T12:31:49.165Z,17.2
2019-04-01T12:32:39.235Z,17.2
2019-04-01T12:33:29.163Z,17.3
2019-04-01T12:34:19.291Z,17.3
2019-04-01T12:35:09.635Z,17.3
2019-04-01T12:35:59.142Z,17.3
2019-04-01T12:36:49.468Z,17.4
2019-04-01T12:37:39.222Z,17.3
2019-04-01T12:38:29.254Z,17.4
2019-04-01T12:39:19.135Z,17.4
2019-04-01T12:40:09.216Z,17.4
2019-04-01T12:40:59.190Z,17.4
2019-04-01T12:41:49.238Z,17.3
2019-04-01T12:42:39.246Z,17.3
2019-04-01T12:43:29.161Z,17.3
2019-04-01T12:44:19.231Z,17.2
2019-04-01T12:45:10.376Z,17.2
2019-04-01T12:45:59.196Z,17.2
2019-04-01T12:46:49.333Z,17.3
2019-04-01T12:47:42.838Z,17.3
2019-04-01T12:48:29.204Z,17.4
2019-04-01T12:49:19.205Z,17.5
2019-04-01T12:50:09.192Z,17.5
2019-04-01T12:50:59.152Z,17.6
2019-04-01T12:51:49.913Z,17.6
2019-04-01T12:52:40.085Z,17.6
2019-04-01T12:53:29.206Z,17.5
2019-04-01T12:54:19.457Z,17.5
2019-04-01T12:55:12.459Z,17.5
2019-04-01T13:32:02.715Z,18.2
2019-04-01T13:32:53.471Z,18.2
2019-04-01T14:09:40.191Z,18.8
2019-04-01T14:10:30.062Z,18.8
2019-04-01T14:11:20.283Z,18.8
2019-04-01T14:12:10.397Z,18.8
2019-04-01T14:13:00.650Z,18.8
2019-04-01T14:13:50.552Z,18.9
2019-04-01T14:14:40.397Z,18.9
2019-04-01T14:15:30.378Z,18.9
2019-04-01T14:16:20.407Z,18.9
2019-04-01T14:17:10.358Z,18.9
2019-04-01T14:18:00.510Z,18.9
2019-04-01T14:18:50.616Z,18.9
2019-04-01T14:19:40.393Z,18.9
2019-04-01T14:20:30.331Z,18.9
2019-04-01T14:21:20.843Z,18.9
2019-04-01T14:22:10.377Z,18.9
2019-04-01T14:23:00.490Z,19
2019-04-01T14:23:52.164Z,19
2019-04-01T14:24:42.569Z,18.9
2019-04-01T14:25:30.355Z,18.9
2019-04-01T14:26:20.529Z,19
2019-04-01T14:27:10.450Z,19
2019-04-01T14:28:00.578Z,19
2019-04-01T14:28:53.289Z,19
2019-04-01T14:29:40.413Z,19
2019-04-01T14:30:30.441Z,18.9
2019-04-01T14:44:42.165Z,19.1
2019-04-01T14:45:33.011Z,19
2019-04-01T14:46:22.912Z,19
2019-04-01T14:47:14.612Z,19
2019-04-01T14:48:03.931Z,19
2019-04-01T14:48:59.904Z,19
2019-04-01T14:49:44.934Z,19
2019-04-01T14:51:56.728Z,19
2019-04-01T14:52:45.427Z,19
2019-04-01T14:53:35.418Z,19
2019-04-01T14:54:25.536Z,19.1
2019-04-01T14:55:15.479Z,19.1
2019-04-01T14:56:05.478Z,19.1
2019-04-01T14:56:57.330Z,19.1
2019-04-01T14:57:45.418Z,19.1
2019-04-01T14:58:35.498Z,19.1
2019-04-01T14:59:25.650Z,19.1
2019-04-01T15:00:17.768Z,19.1
2019-04-01T15:01:08.114Z,19.1
2019-04-01T15:02:10.877Z,19.1
2019-04-01T15:03:34.040Z,19.1
2019-04-01T15:05:58.291Z,19
2019-04-01T15:06:46.778Z,19
2019-04-01T15:09:00.173Z,18.9
2019-04-01T15:09:53.577Z,18.9
2019-04-01T15:10:45.123Z,18.9
2019-04-01T15:23:01.017Z,18.8
2019-04-01T15:23:53.245Z,18.8
2019-04-01T15:24:40.888Z,18.8
2019-04-01T15:25:31.773Z,18.8
2019-04-01T15:26:20.880Z,18.8
2019-04-01T15:27:10.933Z,18.8
2019-04-01T15:28:02.436Z,18.8
2019-04-01T15:28:51.941Z,18.7
2019-04-01T15:29:41.873Z,18.7
2019-04-01T15:30:32.099Z,18.8
2019-04-01T15:31:21.892Z,18.8
2019-04-01T15:32:17.525Z,18.8
2019-04-01T15:33:10.770Z,18.8
2019-04-01T15:35:20.823Z,18.8
2019-04-01T15:36:10.813Z,18.8
2019-04-01T15:37:03.149Z,18.8
2019-04-01T15:37:56.010Z,18.8
2019-04-01T15:38:45.990Z,18.8
2019-04-01T15:39:40.453Z,18.7
2019-04-01T15:40:33.122Z,18.7
2019-04-01T15:41:20.292Z,18.7
2019-04-01T15:42:10.328Z,18.7
2019-04-01T15:43:36.682Z,18.7
2019-04-01T15:44:36.210Z,18.7
2019-04-01T15:45:26.450Z,18.7
2019-04-01T15:46:23.434Z,18.6
2019-04-01T15:47:17.173Z,18.6
2019-04-01T15:48:14.828Z,18.5
2019-04-01T15:51:15.062Z,18.5
2019-04-01T15:52:06.099Z,18.5
2019-04-01T15:52:55.085Z,18.5
2019-04-01T15:53:45.432Z,18.4
2019-04-01T15:54:35.085Z,18.4
2019-04-01T15:55:25.080Z,18.4
2019-04-01T15:56:15.016Z,18.4
2019-04-01T15:57:06.688Z,18.4
2019-04-01T15:57:55.043Z,18.4
2019-04-01T15:58:45.105Z,18.4
2019-04-01T15:59:35.617Z,18.3
2019-04-01T16:00:25.335Z,18.3
2019-04-01T16:01:15.285Z,18.3
2019-04-01T16:02:08.137Z,18.3
2019-04-01T16:02:55.326Z,18.3
2019-04-01T16:03:45.352Z,18.3
2019-04-01T16:04:36.953Z,18.3
2019-04-01T16:05:26.452Z,18.3
2019-04-01T16:06:17.259Z,18.3
2019-04-01T16:07:08.889Z,18.3
2019-04-01T16:07:58.041Z,18.3
2019-04-01T16:08:48.260Z,18.3
2019-04-01T16:09:38.164Z,18.3
2019-04-01T16:10:29.393Z,18.2
2019-04-01T16:11:18.149Z,18.2
2019-04-01T16:12:09.224Z,18.2